createdAt,value
2022-11-21T00:00:32.753Z,0.21
2022-11-21T00:03:01.374Z,0.14
2022-11-21T00:05:29.219Z,0.12
2022-11-21T00:07:56.480Z,0.08
2022-11-21T00:10:24.243Z,0.13
2022-11-21T00:12:55.519Z,0.06
2022-11-21T00:15:22.807Z,0.03
2022-11-21T00:17:49.369Z,-0.05
2022-11-21T00:20:17.007Z,-0.07
2022-11-21T00:22:43.553Z,-0.11
2022-11-21T00:25:10.351Z,-0.19
2022-11-21T00:27:37.027Z,-0.23
2022-11-21T00:30:04.772Z,-0.27
2022-11-21T00:32:31.752Z,-0.26
2022-11-21T00:34:58.271Z,-0.21
2022-11-21T00:37:24.882Z,-0.27
2022-11-21T00:39:51.419Z,-0.29
2022-11-21T00:42:18.042Z,-0.32
2022-11-21T00:44:44.583Z,-0.36
2022-11-21T00:47:11.125Z,-0.40
2022-11-21T00:49:37.664Z,-0.44
2022-11-21T00:52:04.247Z,-0.38
2022-11-21T00:54:30.811Z,-0.36
2022-11-21T00:56:57.359Z,-0.39
2022-11-21T00:59:23.938Z,-0.42
2022-11-21T01:01:50.539Z,-0.43
2022-11-21T01:04:17.099Z,-0.49
2022-11-21T01:06:43.691Z,-0.42
2022-11-21T01:09:10.666Z,-0.43
2022-11-21T01:11:37.283Z,-0.40
2022-11-21T01:14:03.881Z,-0.45
2022-11-21T01:16:31.290Z,-0.40
2022-11-21T01:18:58.427Z,-0.34
2022-11-21T01:21:27.444Z,-0.39
2022-11-21T01:23:54.580Z,-0.40
2022-11-21T01:26:23.114Z,-0.33
2022-11-21T01:28:50.535Z,-0.44
2022-11-21T01:31:23.688Z,-0.42
2022-11-21T01:33:50.607Z,-0.39
2022-11-21T01:36:22.646Z,-0.38
2022-11-21T01:38:51.171Z,-0.39
2022-11-21T01:41:24.485Z,-0.35
2022-11-21T01:43:51.203Z,-0.34
2022-11-21T01:46:19.911Z,-0.32
2022-11-21T01:49:00.412Z,-0.36
2022-11-21T01:51:36.043Z,-0.37
2022-11-21T01:54:13.814Z,-0.28
2022-11-21T01:56:45.952Z,-0.31
2022-11-21T01:59:17.769Z,-0.30
2022-11-21T02:01:44.769Z,-0.34
2022-11-21T02:04:11.432Z,-0.42
2022-11-21T02:06:38.121Z,-0.37
2022-11-21T02:09:05.756Z,-0.47
2022-11-21T02:11:41.914Z,-0.54
2022-11-21T02:14:09.355Z,-0.55
2022-11-21T02:16:36.077Z,-0.64
2022-11-21T02:19:02.751Z,-0.64
2022-11-21T02:21:38.666Z,-0.68
2022-11-21T02:24:17.643Z,-0.64
2022-11-21T02:26:46.091Z,-0.69
2022-11-21T02:29:12.642Z,-0.76
2022-11-21T02:31:39.227Z,-0.70
2022-11-21T02:34:06.544Z,-0.65
2022-11-21T02:36:44.783Z,-0.57
2022-11-21T02:39:22.739Z,-0.55
2022-11-21T02:42:10.055Z,-0.51
2022-11-21T02:44:49.928Z,-0.42
2022-11-21T02:47:16.564Z,-0.41
2022-11-21T02:50:16.111Z,-0.54
2022-11-21T02:52:42.811Z,-0.50
2022-11-21T02:55:09.519Z,-0.49
2022-11-21T02:57:36.114Z,-0.51
2022-11-21T03:00:03.694Z,-0.42
2022-11-21T03:02:30.332Z,-0.42
2022-11-21T03:04:56.930Z,-0.38
2022-11-21T03:07:23.562Z,-0.35
2022-11-21T03:09:50.148Z,-0.22
2022-11-21T03:12:16.807Z,-0.13
2022-11-21T03:14:43.349Z,-0.05
2022-11-21T03:17:10.022Z,0.06
2022-11-21T03:19:36.635Z,0.25
2022-11-21T03:22:03.631Z,0.25
2022-11-21T03:24:30.412Z,0.35
2022-11-21T03:26:57.090Z,0.41
2022-11-21T03:29:23.853Z,0.49
2022-11-21T03:31:50.367Z,0.54
2022-11-21T03:34:16.939Z,0.58
2022-11-21T03:36:43.734Z,0.60
2022-11-21T03:39:10.368Z,0.60
2022-11-21T03:41:36.955Z,0.65
2022-11-21T03:44:06.291Z,0.77
2022-11-21T03:46:34.925Z,0.81
2022-11-21T03:49:01.991Z,0.98
2022-11-21T03:51:28.945Z,1.01
2022-11-21T03:53:55.591Z,0.99
2022-11-21T03:56:22.203Z,1.02
2022-11-21T03:58:48.813Z,1.03
2022-11-21T04:01:15.901Z,0.98
2022-11-21T04:03:43.218Z,1.06
2022-11-21T04:06:11.111Z,1.03
2022-11-21T04:08:37.763Z,1.06
2022-11-21T04:11:04.527Z,1.19
2022-11-21T04:13:31.127Z,1.18
2022-11-21T04:15:57.799Z,1.14
2022-11-21T04:18:24.649Z,1.33
2022-11-21T04:20:58.523Z,1.26
2022-11-21T04:23:25.947Z,1.31
2022-11-21T04:25:52.539Z,1.29
2022-11-21T04:28:19.284Z,1.38
2022-11-21T04:30:45.833Z,1.47
2022-11-21T04:33:14.820Z,1.58
2022-11-21T04:35:43.027Z,1.61
2022-11-21T04:38:09.910Z,1.70
2022-11-21T04:40:36.724Z,1.71
2022-11-21T04:43:03.807Z,1.71
2022-11-21T04:45:30.868Z,1.79
2022-11-21T04:47:57.411Z,1.86
2022-11-21T04:50:24.010Z,1.92
2022-11-21T04:52:56.048Z,1.97
2022-11-21T04:55:27.659Z,2.09
2022-11-21T04:57:54.272Z,2.06
2022-11-21T05:00:24.372Z,2.10
2022-11-21T05:02:51.428Z,2.12
2022-11-21T05:05:18.010Z,2.14
2022-11-21T05:07:44.595Z,2.20
2022-11-21T05:10:11.388Z,2.24
2022-11-21T05:12:56.568Z,2.23
2022-11-21T05:15:24.851Z,2.26
2022-11-21T05:17:52.137Z,2.25
2022-11-21T05:20:19.067Z,2.27
2022-11-21T05:22:49.880Z,2.23
2022-11-21T05:25:16.785Z,2.27
2022-11-21T05:27:43.388Z,2.28
2022-11-21T05:30:11.371Z,2.29
2022-11-21T05:32:38.020Z,2.27
2022-11-21T05:35:04.747Z,2.36
2022-11-21T05:37:31.311Z,2.39
2022-11-21T05:39:57.962Z,2.36
2022-11-21T05:42:44.467Z,2.40
2022-11-21T05:45:11.117Z,2.33
2022-11-21T05:47:37.710Z,2.30
2022-11-21T05:50:04.772Z,2.31
2022-11-21T05:52:31.316Z,2.33
2022-11-21T05:54:57.847Z,2.30
2022-11-21T05:57:24.383Z,2.32
2022-11-21T05:59:50.924Z,2.27
2022-11-21T06:02:37.810Z,2.25
2022-11-21T06:05:04.778Z,2.31
2022-11-21T06:07:31.352Z,2.22
2022-11-21T06:09:57.911Z,2.14
2022-11-21T06:12:25.746Z,2.18
2022-11-21T06:14:52.489Z,2.17
2022-11-21T06:17:19.032Z,2.10
2022-11-21T06:19:45.766Z,2.14
2022-11-21T06:22:12.313Z,2.22
2022-11-21T06:24:38.852Z,2.24
2022-11-21T06:27:05.374Z,2.28
2022-11-21T06:29:31.923Z,2.27
2022-11-21T06:31:58.496Z,2.24
2022-11-21T06:34:27.161Z,2.24
2022-11-21T06:36:54.213Z,2.25
2022-11-21T06:39:21.071Z,2.30
2022-11-21T06:41:51.250Z,2.28
2022-11-21T06:44:18.597Z,2.31
2022-11-21T06:46:50.676Z,2.39
2022-11-21T06:49:18.031Z,2.42
2022-11-21T06:51:44.584Z,2.45
2022-11-21T06:54:15.209Z,2.54
2022-11-21T06:56:43.256Z,2.61
2022-11-21T06:59:09.785Z,2.70
2022-11-21T07:01:36.501Z,2.73
2022-11-21T07:04:03.152Z,2.79
2022-11-21T07:06:29.730Z,2.88
2022-11-21T07:09:25.318Z,2.90
2022-11-21T07:11:45.462Z,3.00
2022-11-21T07:14:12.982Z,3.05
2022-11-21T07:16:39.593Z,3.10
2022-11-21T07:19:06.513Z,3.17
2022-11-21T07:21:33.113Z,3.29
2022-11-21T07:23:59.869Z,3.30
2022-11-21T07:26:26.447Z,3.38
2022-11-21T07:28:52.991Z,3.53
2022-11-21T07:31:19.543Z,3.62
2022-11-21T07:33:47.488Z,3.68
2022-11-21T07:36:14.162Z,3.77
2022-11-21T07:38:41.560Z,3.81
2022-11-21T07:41:08.879Z,3.80
2022-11-21T07:43:35.518Z,3.89
2022-11-21T07:46:02.102Z,4.02
2022-11-21T07:48:28.723Z,4.12
2022-11-21T07:50:55.370Z,4.18
2022-11-21T07:53:21.955Z,4.27
2022-11-21T07:55:48.497Z,4.40
2022-11-21T07:58:16.452Z,4.46
2022-11-21T08:00:43.590Z,4.53
2022-11-21T08:03:12.267Z,4.57
2022-11-21T08:05:40.385Z,4.63
2022-11-21T08:08:07.222Z,4.60
2022-11-21T08:10:34.232Z,4.68
2022-11-21T08:13:00.859Z,4.79
2022-11-21T08:15:27.379Z,4.87
2022-11-21T08:17:54.007Z,4.99
2022-11-21T08:20:20.544Z,5.07
2022-11-21T08:22:47.166Z,5.18
2022-11-21T08:25:13.768Z,5.24
2022-11-21T08:27:40.709Z,5.24
2022-11-21T08:30:09.196Z,5.27
2022-11-21T08:32:35.772Z,5.41
2022-11-21T08:35:02.307Z,5.51
2022-11-21T08:37:31.667Z,5.64
2022-11-21T08:40:02.338Z,5.62
2022-11-21T08:42:29.007Z,5.64
2022-11-21T08:44:55.569Z,5.60
2022-11-21T08:47:22.254Z,5.64
2022-11-21T08:49:48.986Z,5.66
2022-11-21T08:52:17.258Z,5.71
2022-11-21T08:54:45.032Z,5.78
2022-11-21T08:57:12.088Z,5.82
2022-11-21T08:59:38.644Z,5.88
2022-11-21T09:02:05.437Z,5.90
2022-11-21T09:04:32.252Z,5.96
2022-11-21T09:06:58.923Z,6.02
2022-11-21T09:09:25.911Z,6.04
2022-11-21T09:11:52.683Z,6.12
2022-11-21T09:14:37.647Z,6.21
2022-11-21T09:17:23.877Z,6.29
2022-11-21T09:19:50.522Z,6.43
2022-11-21T09:22:17.242Z,6.51
2022-11-21T09:24:43.856Z,6.59
2022-11-21T09:27:10.428Z,6.67
2022-11-21T09:29:37.007Z,6.71
2022-11-21T09:32:03.623Z,6.83
2022-11-21T09:34:31.662Z,6.94
2022-11-21T09:36:58.396Z,6.97
2022-11-21T09:39:25.667Z,7.05
2022-11-21T09:42:21.886Z,7.21
2022-11-21T09:44:58.681Z,7.31
2022-11-21T09:47:28.477Z,7.44
2022-11-21T09:50:37.208Z,7.41
2022-11-21T09:53:18.892Z,7.34
2022-11-21T09:56:00.689Z,7.29
2022-11-21T09:58:50.404Z,7.29
2022-11-21T10:01:17.338Z,7.26
2022-11-21T10:03:49.007Z,7.27
2022-11-21T10:06:24.523Z,7.41
2022-11-21T10:09:12.244Z,7.53
2022-11-21T10:12:15.619Z,7.59
2022-11-21T10:15:10.021Z,7.52
2022-11-21T10:17:49.937Z,7.45
2022-11-21T10:20:48.340Z,7.43
2022-11-21T10:23:39.224Z,7.42
2022-11-21T10:26:17.279Z,7.45
2022-11-21T10:28:58.962Z,7.53
2022-11-21T10:31:27.696Z,7.56
2022-11-21T10:33:56.831Z,7.70
2022-11-21T10:36:27.369Z,7.83
2022-11-21T10:38:59.659Z,7.90
2022-11-21T10:41:45.031Z,8.05
2022-11-21T10:44:33.152Z,8.23
2022-11-21T10:47:01.119Z,8.47
2022-11-21T10:49:38.570Z,8.76
2022-11-21T10:52:11.472Z,9.13
2022-11-21T10:55:05.776Z,9.47
2022-11-21T10:57:50.330Z,9.71
2022-11-21T11:00:20.203Z,9.91
2022-11-21T11:02:55.673Z,10.11
2022-11-21T11:05:24.889Z,10.29
2022-11-21T11:08:09.746Z,10.51
2022-11-21T11:11:04.477Z,10.70
2022-11-21T11:13:50.914Z,10.78
2022-11-21T11:16:21.094Z,10.90
2022-11-21T11:18:54.719Z,10.90
2022-11-21T11:21:25.905Z,10.88
2022-11-21T11:23:54.297Z,10.91
2022-11-21T11:26:25.689Z,10.85
2022-11-21T11:28:52.409Z,10.85
2022-11-21T11:31:19.118Z,10.87
2022-11-21T11:33:48.530Z,10.80
2022-11-21T11:36:22.680Z,10.68
2022-11-21T11:38:54.035Z,10.58
2022-11-21T11:41:52.959Z,10.50
2022-11-21T11:44:47.094Z,10.34
2022-11-21T11:47:30.575Z,10.29
2022-11-21T11:50:11.451Z,10.18
2022-11-21T11:52:50.277Z,10.06
2022-11-21T11:55:40.305Z,9.96
2022-11-21T11:58:14.401Z,9.87
2022-11-21T12:00:45.582Z,9.88
2022-11-21T12:03:40.229Z,9.72
2022-11-21T12:06:12.817Z,9.74
2022-11-21T12:08:52.972Z,9.76
2022-11-21T12:11:46.940Z,9.64
2022-11-21T12:14:58.467Z,9.63
2022-11-21T12:17:47.074Z,9.58
2022-11-21T12:20:18.139Z,9.63
2022-11-21T12:22:45.067Z,9.60
2022-11-21T12:25:12.952Z,9.63
2022-11-21T12:27:41.685Z,9.64
2022-11-21T12:30:38.862Z,9.69
2022-11-21T12:33:09.395Z,9.71
2022-11-21T12:36:16.805Z,9.75
2022-11-21T12:39:15.253Z,9.78
2022-11-21T12:42:07.520Z,9.78
2022-11-21T12:45:01.763Z,9.79
2022-11-21T12:48:10.582Z,9.75
2022-11-21T12:51:05.896Z,9.63
2022-11-21T12:54:09.724Z,9.55
2022-11-21T12:56:43.600Z,9.57
2022-11-21T12:59:12.411Z,9.52
2022-11-21T13:01:51.125Z,9.44
2022-11-21T13:04:21.743Z,9.34
2022-11-21T13:06:49.475Z,9.24
2022-11-21T13:09:17.861Z,9.28
2022-11-21T13:12:05.717Z,9.22
2022-11-21T13:14:42.496Z,9.16
2022-11-21T13:17:25.106Z,9.18
2022-11-21T13:20:00.772Z,9.17
2022-11-21T13:22:36.439Z,9.27
2022-11-21T13:25:10.171Z,9.19
2022-11-21T13:27:40.386Z,9.17
2022-11-21T13:30:06.837Z,9.26
2022-11-21T13:33:06.420Z,9.27
2022-11-21T13:35:38.688Z,9.29
2022-11-21T13:38:06.845Z,9.36
2022-11-21T13:40:33.435Z,9.34
2022-11-21T13:43:39.291Z,9.26
2022-11-21T13:46:05.921Z,9.35
2022-11-21T13:48:35.144Z,9.33
2022-11-21T13:51:13.936Z,9.34
2022-11-21T13:53:58.847Z,9.36
2022-11-21T13:56:53.224Z,9.47
2022-11-21T13:59:28.060Z,9.63
2022-11-21T14:02:22.900Z,9.73
2022-11-21T14:05:07.674Z,9.74
2022-11-21T14:07:35.778Z,9.72
2022-11-21T14:10:04.668Z,9.65
2022-11-21T14:12:37.290Z,9.62
2022-11-21T14:15:20.886Z,9.57
2022-11-21T14:17:56.152Z,9.46
2022-11-21T14:20:49.687Z,9.33
2022-11-21T16:42:06.486Z,2.38
2022-11-21T16:44:37.821Z,2.29
2022-11-21T16:47:16.243Z,2.19
2022-11-21T16:49:52.600Z,2.14
2022-11-21T16:52:20.979Z,1.99
2022-11-21T16:54:51.029Z,2.04
2022-11-21T16:57:19.653Z,1.78
2022-11-21T16:59:50.166Z,1.72
2022-11-21T17:02:18.291Z,1.74
2022-11-21T17:04:47.021Z,1.66
2022-11-21T17:07:16.530Z,1.55
2022-11-21T17:09:43.944Z,1.63
2022-11-21T17:12:11.423Z,1.58
2022-11-21T17:14:40.020Z,1.44
2022-11-21T17:17:07.220Z,1.44
2022-11-21T17:19:34.375Z,1.43
2022-11-21T17:22:05.009Z,1.30
2022-11-21T17:24:32.566Z,1.27
2022-11-21T17:27:01.036Z,1.28
2022-11-21T17:29:28.884Z,1.27
2022-11-21T17:31:57.678Z,1.11
2022-11-21T17:34:31.437Z,1.12
2022-11-21T17:37:04.332Z,1.10
2022-11-21T17:39:32.610Z,0.92
2022-11-21T17:42:00.180Z,0.89
2022-11-21T17:44:28.491Z,0.80
2022-11-21T17:46:57.887Z,0.84
2022-11-21T17:49:27.698Z,0.75
2022-11-21T17:51:56.726Z,0.69
2022-11-21T17:54:24.327Z,0.58
2022-11-21T17:56:55.420Z,0.62
2022-11-21T17:59:25.197Z,0.44
2022-11-21T18:01:55.264Z,0.41
2022-11-21T18:04:23.213Z,0.39
2022-11-21T18:06:50.443Z,0.30
2022-11-21T18:09:17.708Z,0.40
2022-11-21T18:11:46.182Z,0.30
2022-11-21T18:14:14.056Z,0.33
2022-11-21T18:16:46.021Z,0.27
2022-11-21T18:19:16.291Z,0.30
2022-11-21T18:21:43.232Z,0.28
2022-11-21T18:24:10.066Z,0.27
2022-11-21T18:26:38.207Z,0.26
2022-11-21T18:31:54.890Z,0.27
2022-11-21T18:34:22.010Z,0.20
2022-11-21T18:36:49.252Z,0.22
2022-11-21T18:39:17.573Z,0.22
2022-11-21T18:41:45.278Z,0.19
2022-11-21T18:44:18.649Z,0.28
2022-11-21T18:46:48.852Z,0.23
2022-11-21T18:49:15.971Z,0.24
2022-11-21T18:51:43.225Z,0.36
2022-11-21T18:54:12.197Z,0.37
2022-11-21T18:56:40.489Z,0.43
2022-11-21T18:59:08.101Z,0.37
2022-11-21T19:01:36.741Z,0.39
2022-11-21T19:04:03.984Z,0.31
2022-11-21T19:06:31.217Z,0.34
2022-11-21T19:08:58.642Z,0.30
2022-11-21T19:11:29.800Z,0.23
2022-11-21T19:13:57.885Z,0.08
2022-11-21T19:16:27.009Z,0.09
2022-11-21T19:21:42.446Z,0.05
2022-11-21T19:24:14.037Z,0.02
2022-11-21T19:26:41.801Z,-0.02
2022-11-21T19:29:09.571Z,0.04
2022-11-21T19:31:45.405Z,0.02
2022-11-21T19:34:14.034Z,-0.11
2022-11-21T19:36:42.755Z,-0.14
2022-11-21T19:39:10.325Z,-0.23
2022-11-21T19:41:37.682Z,-0.08
2022-11-21T19:44:05.381Z,-0.32
2022-11-21T19:46:37.348Z,-0.37
2022-11-21T19:49:04.955Z,-0.41
2022-11-21T19:51:33.880Z,-0.42
2022-11-21T19:54:08.871Z,-0.44
2022-11-21T19:56:36.265Z,-0.30
2022-11-21T19:59:03.249Z,-0.49
2022-11-21T20:01:31.631Z,-0.53
2022-11-21T20:04:00.813Z,-0.58
2022-11-21T20:06:37.755Z,-0.57
2022-11-21T20:09:12.756Z,-0.65
2022-11-21T20:11:41.206Z,-0.73
2022-11-21T20:14:08.390Z,-0.64
2022-11-21T20:16:38.420Z,-0.67
2022-11-21T20:19:07.175Z,-0.81
2022-11-21T20:21:34.077Z,-0.72
2022-11-21T20:24:00.828Z,-0.81
2022-11-21T20:26:27.540Z,-0.84
2022-11-21T20:28:54.600Z,-0.84
2022-11-21T20:31:24.998Z,-0.90
2022-11-21T20:33:53.674Z,-0.85
2022-11-21T20:36:22.810Z,-0.92
2022-11-21T20:39:00.049Z,-0.87
2022-11-21T20:41:30.097Z,-0.91
2022-11-21T20:46:48.891Z,-0.92
2022-11-21T20:49:15.580Z,-1.00
2022-11-21T20:54:30.653Z,-1.00
2022-11-21T20:56:58.063Z,-1.06
2022-11-21T20:59:26.169Z,-1.08
2022-11-21T21:01:53.104Z,-1.05
2022-11-21T21:04:19.838Z,-0.93
2022-11-21T21:06:47.455Z,-0.81
2022-11-21T21:09:18.402Z,-0.64
2022-11-21T21:11:53.404Z,-0.47
2022-11-21T21:14:21.708Z,-0.22
2022-11-21T21:16:48.696Z,-0.03
2022-11-21T21:19:15.298Z,0.10
2022-11-21T21:21:41.939Z,0.26
2022-11-21T21:24:10.196Z,0.36
2022-11-21T21:26:42.685Z,0.48
2022-11-21T21:29:18.520Z,0.52
2022-11-21T21:31:50.931Z,0.64
2022-11-21T21:34:18.261Z,0.67
2022-11-21T21:36:44.796Z,0.72
2022-11-21T21:39:11.752Z,0.75
2022-11-21T21:41:44.739Z,0.79
2022-11-21T21:44:11.882Z,0.85
2022-11-21T21:46:38.474Z,0.88
2022-11-21T21:49:05.264Z,0.97
2022-11-21T21:51:32.390Z,0.98
2022-11-21T21:54:02.566Z,1.01
2022-11-21T21:56:47.024Z,1.01
2022-11-21T21:59:20.630Z,1.05
2022-11-21T22:01:55.189Z,1.05
2022-11-21T22:04:22.263Z,1.10
2022-11-21T22:06:49.914Z,1.15
2022-11-21T22:09:16.816Z,1.14
2022-11-21T22:11:43.590Z,1.22
2022-11-21T22:14:15.009Z,1.20
2022-11-21T22:16:42.529Z,1.23
2022-11-21T22:22:19.610Z,1.30
2022-11-21T22:24:48.719Z,1.20
2022-11-21T22:27:16.262Z,1.31
2022-11-21T22:29:43.582Z,1.28
2022-11-21T22:32:12.327Z,1.31
